Time;durP1;ratioP1;P1;durP2;ratioP2;P2;SDS_P1;SDS_P2;PMS_P1;PMS_P2;Temp;Humidity;BMP_temperature;BMP_pressure;BME280_temperature;BME280_humidity;BME280_pressure;Samples;Min_cycle;Max_cycle;Signal;HPM_P1;HPM_P2
2023/08/21 00:01:20;;;;;;;3.23;3.03;;;30.90;66.90;;;;;;4861840;29;20459;-83
2023/08/21 00:03:48;;;;;;;3.17;2.97;;;30.90;66.90;;;;;;4857239;29;20564;-83
2023/08/21 00:06:16;;;;;;;3.73;3.53;;;30.90;66.90;;;;;;4847068;29;20472;-83
2023/08/21 00:08:44;;;;;;;3.30;3.10;;;30.90;66.90;;;;;;4842753;29;20457;-84
2023/08/21 00:11:13;;;;;;;3.20;3.00;;;30.90;66.90;;;;;;4856678;29;20566;-83
2023/08/21 00:13:44;;;;;;;3.40;3.20;;;30.90;66.90;;;;;;4856076;29;20986;-84
2023/08/21 00:16:14;;;;;;;3.30;3.10;;;30.90;66.90;;;;;;4861674;29;20466;-83
2023/08/21 00:18:42;;;;;;;3.67;3.47;;;30.80;66.90;;;;;;4853471;29;20477;-83
2023/08/21 00:21:10;;;;;;;3.87;3.57;;;30.90;66.90;;;;;;4856014;29;20454;-84
2023/08/21 00:23:39;;;;;;;3.80;3.60;;;30.90;66.90;;;;;;4853313;29;20471;-83
2023/08/21 00:26:07;;;;;;;3.30;3.10;;;30.80;66.90;;;;;;4844529;29;20480;-83
2023/08/21 00:28:35;;;;;;;3.40;3.20;;;30.80;67.00;;;;;;4842850;29;20985;-83
2023/08/21 00:31:04;;;;;;;3.30;3.10;;;30.80;67.00;;;;;;4854976;29;20458;-83
2023/08/21 00:33:34;;;;;;;3.20;3.00;;;30.80;67.00;;;;;;4855170;29;20506;-84
2023/08/21 00:36:02;;;;;;;3.23;3.03;;;30.80;67.00;;;;;;4865673;29;20474;-84
2023/08/21 00:38:31;;;;;;;3.13;2.93;;;30.80;67.00;;;;;;4878362;29;20989;-83
2023/08/21 00:41:00;;;;;;;3.43;3.23;;;30.80;67.10;;;;;;4867449;29;20456;-84
2023/08/21 00:43:28;;;;;;;3.13;2.93;;;30.80;67.10;;;;;;4860621;29;20791;-83
2023/08/21 00:45:58;;;;;;;3.60;3.40;;;30.80;67.20;;;;;;4861690;29;20482;-83
2023/08/21 00:48:27;;;;;;;3.40;3.20;;;30.80;67.20;;;;;;4860872;29;20816;-83
2023/08/21 00:50:56;;;;;;;3.73;3.43;;;30.80;67.30;;;;;;4859876;29;20837;-83
2023/08/21 00:53:25;;;;;;;3.50;3.30;;;30.70;67.30;;;;;;4859183;29;20566;-83
2023/08/21 00:55:53;;;;;;;4.07;3.87;;;30.70;67.30;;;;;;4859881;29;20475;-83
2023/08/21 00:58:21;;;;;;;3.47;3.27;;;30.70;67.50;;;;;;4860960;29;20486;-83
2023/08/21 01:00:51;;;;;;;4.27;3.97;;;30.70;67.50;;;;;;4858153;29;20515;-83
2023/08/21 01:03:20;;;;;;;3.50;3.20;;;30.70;67.50;;;;;;4846267;29;21037;-83
2023/08/21 01:05:48;;;;;;;3.90;3.70;;;30.70;67.60;;;;;;4861435;29;20479;-83
2023/08/21 01:08:24;;;;;;;3.70;3.47;;;30.70;67.60;;;;;;4854161;29;20476;-83
2023/08/21 01:10:55;;;;;;;3.47;3.27;;;30.70;67.60;;;;;;4860278;29;20690;-83
2023/08/21 01:13:36;;;;;;;4.13;3.93;;;30.70;67.60;;;;;;4858627;29;20464;-83
2023/08/21 01:16:06;;;;;;;4.30;4.00;;;30.60;67.70;;;;;;4860903;29;20856;-83
2023/08/21 01:18:36;;;;;;;3.63;3.43;;;30.60;67.70;;;;;;4860315;29;20430;-83
2023/08/21 01:21:05;;;;;;;3.57;3.37;;;30.60;67.70;;;;;;4860562;29;20520;-85
2023/08/21 01:23:36;;;;;;;3.47;3.27;;;30.60;67.80;;;;;;4860318;29;20512;-83
2023/08/21 01:26:05;;;;;;;4.10;3.80;;;30.60;67.80;;;;;;4860205;29;21396;-83
2023/08/21 01:28:34;;;;;;;4.03;3.83;;;30.60;67.90;;;;;;4859910;29;20496;-82
2023/08/21 01:31:09;;;;;;;3.40;3.20;;;30.60;67.90;;;;;;4853064;29;20886;-83
2023/08/21 01:33:43;;;;;;;3.93;3.73;;;30.60;67.90;;;;;;4843467;29;20460;-83
2023/08/21 01:36:12;;;;;;;3.73;3.53;;;30.60;67.90;;;;;;4857560;29;20961;-83
2023/08/21 01:38:43;;;;;;;3.87;3.67;;;30.60;67.90;;;;;;4858806;29;20462;-83
2023/08/21 01:41:12;;;;;;;3.63;3.43;;;30.50;68.00;;;;;;4856359;29;20460;-83
2023/08/21 01:43:40;;;;;;;3.77;3.57;;;30.50;68.00;;;;;;4859662;29;20858;-83
2023/08/21 01:46:09;;;;;;;3.77;3.57;;;30.50;68.00;;;;;;4860576;29;20886;-83
2023/08/21 01:48:38;;;;;;;3.50;3.30;;;30.50;68.00;;;;;;4859758;29;20534;-82
2023/08/21 01:51:06;;;;;;;3.80;3.60;;;30.50;68.00;;;;;;4860124;29;20467;-83
2023/08/21 01:53:34;;;;;;;4.03;3.83;;;30.50;68.00;;;;;;4858539;29;20452;-83
2023/08/21 01:56:04;;;;;;;3.50;3.30;;;30.50;68.10;;;;;;4859864;29;20440;-84
2023/08/21 01:58:33;;;;;;;3.57;3.37;;;30.50;68.00;;;;;;4858862;29;20566;-83
2023/08/21 02:01:02;;;;;;;4.07;3.77;;;30.50;68.00;;;;;;4853479;29;20480;-84
2023/08/21 02:03:31;;;;;;;4.20;3.90;;;30.50;68.00;;;;;;4845823;29;20483;-83
2023/08/21 02:05:59;;;;;;;3.73;3.53;;;30.50;68.00;;;;;;4858190;29;20532;-83
2023/08/21 02:08:31;;;;;;;4.10;3.90;;;30.50;68.00;;;;;;4854678;29;20460;-83
2023/08/21 02:10:59;;;;;;;4.50;4.10;;;30.50;68.00;;;;;;4865292;29;20468;-83
2023/08/21 02:13:29;;;;;;;4.07;3.77;;;30.50;68.00;;;;;;4860251;29;20495;-83
2023/08/21 02:15:57;;;;;;;3.60;3.40;;;30.50;67.90;;;;;;4873918;29;20465;-83
2023/08/21 02:18:25;;;;;;;4.40;4.10;;;30.50;67.90;;;;;;4859371;29;20494;-83
2023/08/21 02:20:54;;;;;;;4.50;4.20;;;30.50;67.80;;;;;;4859942;29;20467;-82
2023/08/21 02:23:24;;;;;;;3.40;3.20;;;30.50;67.80;;;;;;4857629;29;20459;-84
2023/08/21 02:25:52;;;;;;;4.30;4.00;;;30.50;67.80;;;;;;4859637;29;20569;-83
2023/08/21 02:28:20;;;;;;;4.20;4.00;;;30.50;67.80;;;;;;4853878;29;20476;-84
2023/08/21 02:30:50;;;;;;;4.03;3.83;;;30.50;67.80;;;;;;4853606;29;20470;-83
2023/08/21 02:33:18;;;;;;;4.90;4.60;;;30.50;67.80;;;;;;4858218;29;20463;-83
2023/08/21 02:35:46;;;;;;;4.13;3.93;;;30.50;67.80;;;;;;4852065;29;20472;-83
2023/08/21 02:38:14;;;;;;;4.07;3.87;;;30.50;67.80;;;;;;4867642;29;20446;-84
2023/08/21 02:40:42;;;;;;;4.47;4.17;;;30.50;67.90;;;;;;4859843;29;20526;-83
2023/08/21 02:43:11;;;;;;;3.97;3.77;;;30.50;67.90;;;;;;4859494;29;20921;-83
2023/08/21 02:45:39;;;;;;;4.87;4.57;;;30.50;67.80;;;;;;4857682;29;20475;-83
2023/08/21 02:48:08;;;;;;;4.53;4.23;;;30.50;67.90;;;;;;4859299;29;20443;-83
2023/08/21 02:50:37;;;;;;;3.93;3.73;;;30.50;67.90;;;;;;4859274;29;20456;-83
2023/08/21 02:53:05;;;;;;;4.30;4.00;;;30.50;67.80;;;;;;4857423;29;20474;-83
2023/08/21 02:55:33;;;;;;;4.70;4.40;;;30.50;67.80;;;;;;4859689;29;21007;-83
2023/08/21 02:58:01;;;;;;;4.43;4.13;;;30.50;67.80;;;;;;4849978;29;20472;-83
2023/08/21 03:00:29;;;;;;;5.00;4.70;;;30.50;67.70;;;;;;4862012;29;20482;-83
2023/08/21 03:02:58;;;;;;;4.97;4.13;;;30.50;67.70;;;;;;4853559;29;20476;-83
2023/08/21 03:05:27;;;;;;;5.10;4.80;;;30.60;67.60;;;;;;4857939;29;20895;-83
2023/08/21 03:07:56;;;;;;;4.80;4.50;;;30.60;67.50;;;;;;4858101;29;20446;-84
2023/08/21 03:10:24;;;;;;;4.50;4.20;;;30.60;67.40;;;;;;4859513;29;20519;-83
2023/08/21 03:12:52;;;;;;;5.00;4.70;;;30.60;67.40;;;;;;4859121;29;20927;-83
2023/08/21 03:15:21;;;;;;;4.67;4.37;;;30.60;67.30;;;;;;4859014;29;20517;-84
2023/08/21 03:17:49;;;;;;;4.10;3.90;;;30.60;67.30;;;;;;4859274;29;20876;-83
2023/08/21 03:20:18;;;;;;;4.50;4.20;;;30.60;67.30;;;;;;4858803;29;20546;-83
2023/08/21 03:22:48;;;;;;;4.53;4.33;;;30.60;67.20;;;;;;4857232;29;20550;-83
2023/08/21 03:25:18;;;;;;;4.37;4.17;;;30.60;67.20;;;;;;4856326;29;20506;-83
2023/08/21 03:27:49;;;;;;;4.70;4.40;;;30.60;67.20;;;;;;4857342;29;20929;-84
2023/08/21 03:30:17;;;;;;;5.23;4.87;;;30.70;67.20;;;;;;4857558;29;20495;-83
2023/08/21 03:32:46;;;;;;;4.57;4.27;;;30.70;67.20;;;;;;4853530;29;20483;-84
2023/08/21 03:35:15;;;;;;;4.30;4.00;;;30.60;67.20;;;;;;4857420;29;20459;-83
2023/08/21 03:37:43;;;;;;;4.57;4.33;;;30.60;67.20;;;;;;4839907;29;20447;-83
2023/08/21 03:40:15;;;;;;;4.50;4.20;;;30.60;67.20;;;;;;4857038;29;20954;-83
2023/08/21 03:42:44;;;;;;;5.10;4.70;;;30.60;67.30;;;;;;4873131;29;20458;-83
2023/08/21 03:45:12;;;;;;;5.47;4.97;;;30.60;67.30;;;;;;4859032;29;20466;-83
2023/08/21 03:47:40;;;;;;;4.30;4.10;;;30.60;67.30;;;;;;4858565;29;20510;-84
2023/08/21 03:50:16;;;;;;;5.70;5.30;;;30.60;67.30;;;;;;4859513;29;20493;-84
2023/08/21 03:52:44;;;;;;;4.80;4.50;;;30.60;67.30;;;;;;4859488;29;20954;-83
2023/08/21 03:55:13;;;;;;;5.10;4.80;;;30.60;67.30;;;;;;4855542;29;21038;-83
2023/08/21 03:57:44;;;;;;;4.53;4.23;;;30.60;67.30;;;;;;4861054;29;20504;-84
2023/08/21 04:00:13;;;;;;;4.70;4.40;;;30.60;67.30;;;;;;4858529;29;20476;-83
2023/08/21 04:02:44;;;;;;;5.27;4.97;;;30.60;67.30;;;;;;4861722;29;20454;-83
2023/08/21 04:05:12;;;;;;;4.47;4.17;;;30.60;67.30;;;;;;4862410;29;20471;-83
2023/08/21 04:07:41;;;;;;;5.03;4.73;;;30.60;67.30;;;;;;4859698;29;20489;-84
2023/08/21 04:10:09;;;;;;;5.03;4.73;;;30.60;67.30;;;;;;4861912;29;20434;-83
2023/08/21 04:12:37;;;;;;;5.03;4.53;;;30.60;67.30;;;;;;4876140;29;20490;-83
2023/08/21 04:15:09;;;;;;;5.50;5.10;;;30.50;67.40;;;;;;4861872;29;20466;-82
2023/08/21 04:17:37;;;;;;;4.70;4.40;;;30.50;67.40;;;;;;4861559;29;20447;-83
2023/08/21 04:20:06;;;;;;;5.13;4.83;;;30.50;67.40;;;;;;4861922;29;20947;-83
2023/08/21 04:22:35;;;;;;;4.40;4.10;;;30.50;67.40;;;;;;4875025;29;20459;-83
2023/08/21 04:25:05;;;;;;;5.00;4.70;;;30.50;67.40;;;;;;4852604;29;20554;-83
2023/08/21 04:27:33;;;;;;;5.03;4.73;;;30.50;67.40;;;;;;4842905;29;20757;-84
2023/08/21 04:30:01;;;;;;;5.50;5.10;;;30.50;67.40;;;;;;4853016;29;20495;-83
2023/08/21 04:32:31;;;;;;;5.00;4.70;;;30.50;67.40;;;;;;4844566;29;20828;-83
2023/08/21 04:34:59;;;;;;;5.13;4.83;;;30.50;67.40;;;;;;4857250;29;20803;-84
2023/08/21 04:37:27;;;;;;;5.77;5.37;;;30.50;67.40;;;;;;4858463;29;20477;-84
2023/08/21 04:39:56;;;;;;;4.80;4.47;;;30.50;67.40;;;;;;4860547;29;20470;-83
2023/08/21 04:42:24;;;;;;;5.00;4.70;;;30.50;67.40;;;;;;4842773;29;20454;-83
2023/08/21 04:44:52;;;;;;;4.60;4.30;;;30.50;67.40;;;;;;4841490;29;20994;-83
2023/08/21 04:47:22;;;;;;;5.60;5.20;;;30.50;67.40;;;;;;4857400;29;20482;-83
2023/08/21 04:49:56;;;;;;;5.37;5.07;;;30.50;67.40;;;;;;4869552;29;20484;-83
2023/08/21 04:52:25;;;;;;;5.70;5.30;;;30.50;67.50;;;;;;4857620;29;20468;-84
2023/08/21 04:54:55;;;;;;;6.33;5.93;;;30.50;67.50;;;;;;4850510;29;21068;-83
2023/08/21 04:57:23;;;;;;;4.43;4.23;;;30.50;67.50;;;;;;4857322;29;20469;-83
2023/08/21 04:59:51;;;;;;;5.93;5.53;;;30.50;67.50;;;;;;4846070;29;20469;-83
2023/08/21 05:02:22;;;;;;;5.73;5.33;;;30.50;67.50;;;;;;4858431;29;20476;-83
2023/08/21 05:04:52;;;;;;;4.87;4.57;;;30.50;67.50;;;;;;4859992;29;20869;-83
2023/08/21 05:07:21;;;;;;;5.20;4.90;;;30.40;67.50;;;;;;4874639;29;20546;-84
2023/08/21 05:09:50;;;;;;;5.37;4.97;;;30.50;67.50;;;;;;4859655;29;20460;-83
2023/08/21 05:12:21;;;;;;;5.60;5.20;;;30.40;67.50;;;;;;4874156;29;20503;-83
2023/08/21 05:14:49;;;;;;;5.30;4.90;;;30.40;67.50;;;;;;4861274;29;20431;-83
2023/08/21 05:17:17;;;;;;;5.60;5.20;;;30.40;67.50;;;;;;4859395;29;20515;-83
2023/08/21 05:19:46;;;;;;;5.60;5.30;;;30.40;67.50;;;;;;4860812;29;20454;-83
2023/08/21 05:22:14;;;;;;;5.70;5.37;;;30.40;67.50;;;;;;4855170;29;20471;-84
2023/08/21 05:24:44;;;;;;;5.27;4.97;;;30.40;67.60;;;;;;4858499;29;20990;-83
2023/08/21 05:27:12;;;;;;;6.00;5.60;;;30.40;67.50;;;;;;4872298;29;20484;-83
2023/08/21 05:29:40;;;;;;;5.63;5.27;;;30.40;67.50;;;;;;4871882;29;20507;-83
2023/08/21 05:32:08;;;;;;;5.10;4.80;;;30.40;67.60;;;;;;4860301;29;20451;-84
2023/08/21 05:34:37;;;;;;;5.90;5.50;;;30.40;67.50;;;;;;4859369;29;20531;-83
2023/08/21 05:37:05;;;;;;;5.60;5.20;;;30.40;67.50;;;;;;4860305;29;20541;-83
2023/08/21 05:39:33;;;;;;;5.17;4.87;;;30.40;67.60;;;;;;4859699;29;20458;-83
2023/08/21 05:42:04;;;;;;;5.63;5.23;;;30.40;67.60;;;;;;4859680;29;20466;-84
2023/08/21 05:44:32;;;;;;;4.93;4.63;;;30.40;67.60;;;;;;4874221;29;20468;-83
2023/08/21 05:47:00;;;;;;;6.03;5.63;;;30.40;67.60;;;;;;4859952;29;20432;-84
2023/08/21 05:49:29;;;;;;;5.83;5.43;;;30.40;67.60;;;;;;4860442;29;20447;-83
2023/08/21 05:51:58;;;;;;;5.77;5.37;;;30.40;67.60;;;;;;4851337;29;20475;-83
2023/08/21 05:54:28;;;;;;;5.10;4.80;;;30.40;67.60;;;;;;4840441;29;20449;-84
2023/08/21 05:56:57;;;;;;;5.70;5.30;;;30.40;67.60;;;;;;4863502;29;20507;-83
2023/08/21 05:59:30;;;;;;;5.40;5.00;;;30.40;67.50;;;;;;4841465;29;20501;-83
2023/08/21 06:02:01;;;;;;;5.70;5.30;;;30.40;67.60;;;;;;4849563;29;20475;-83
2023/08/21 06:04:29;;;;;;;5.27;4.87;;;30.40;67.50;;;;;;4858516;29;20464;-83
2023/08/21 06:07:01;;;;;;;5.90;5.50;;;30.50;67.50;;;;;;4858837;29;20496;-84
2023/08/21 06:09:31;;;;;;;6.47;6.07;;;30.40;67.50;;;;;;4859329;29;20448;-83
2023/08/21 06:12:00;;;;;;;5.80;5.40;;;30.40;67.50;;;;;;4859545;29;20566;-83
2023/08/21 06:14:31;;;;;;;6.07;5.67;;;30.40;67.50;;;;;;4858119;29;20469;-83
2023/08/21 06:17:02;;;;;;;5.60;5.30;;;30.40;67.50;;;;;;4860136;29;20498;-84
2023/08/21 06:19:31;;;;;;;5.20;4.90;;;30.40;67.50;;;;;;4854690;29;20469;-83
2023/08/21 06:21:59;;;;;;;6.00;5.40;;;30.50;67.60;;;;;;4843184;29;20837;-83
2023/08/21 06:24:28;;;;;;;5.80;5.40;;;30.50;67.50;;;;;;4841076;29;20450;-83
2023/08/21 06:27:01;;;;;;;6.43;5.93;;;30.50;67.50;;;;;;4850614;29;20491;-83
2023/08/21 06:29:31;;;;;;;6.17;5.77;;;30.50;67.50;;;;;;4854801;29;20858;-83
2023/08/21 06:31:59;;;;;;;5.20;4.90;;;30.50;67.60;;;;;;4856966;29;20565;-83
2023/08/21 06:34:28;;;;;;;5.67;5.27;;;30.50;67.60;;;;;;4873516;29;20467;-84
2023/08/21 06:36:56;;;;;;;5.80;5.40;;;30.50;67.60;;;;;;4849595;29;20518;-83
2023/08/21 06:39:25;;;;;;;5.57;5.17;;;30.50;67.50;;;;;;4859360;29;20492;-83
2023/08/21 06:41:53;;;;;;;5.70;5.30;;;30.50;67.50;;;;;;4852364;29;20495;-83
2023/08/21 06:44:21;;;;;;;5.70;5.40;;;30.50;67.50;;;;;;4857226;29;20472;-83
2023/08/21 06:46:51;;;;;;;5.93;5.53;;;30.50;67.60;;;;;;4859779;29;20448;-83
2023/08/21 06:49:20;;;;;;;5.87;5.47;;;30.50;67.60;;;;;;4852559;29;21095;-83
2023/08/21 06:51:48;;;;;;;5.63;5.23;;;30.50;67.60;;;;;;4859118;29;20591;-84
2023/08/21 06:54:17;;;;;;;6.17;5.77;;;30.50;67.60;;;;;;4846181;29;20495;-83
2023/08/21 06:56:46;;;;;;;5.33;4.93;;;30.60;67.70;;;;;;4841215;29;20476;-83
2023/08/21 06:59:15;;;;;;;5.37;4.97;;;30.60;67.70;;;;;;4844788;29;20502;-83
2023/08/21 07:01:43;;;;;;;5.20;4.90;;;30.50;67.70;;;;;;4852297;29;20477;-83
2023/08/21 07:04:13;;;;;;;6.00;5.60;;;30.50;67.80;;;;;;4856767;29;20550;-83
2023/08/21 07:06:42;;;;;;;5.43;5.07;;;30.60;67.80;;;;;;4859788;29;21378;-83
2023/08/21 07:09:10;;;;;;;6.80;6.40;;;30.60;67.90;;;;;;4858210;29;20484;-84
2023/08/21 07:11:38;;;;;;;4.80;4.50;;;30.50;67.90;;;;;;4859174;29;20527;-83
2023/08/21 07:14:06;;;;;;;5.53;5.23;;;30.50;67.80;;;;;;4859162;29;20530;-83
2023/08/21 07:16:34;;;;;;;5.50;5.20;;;30.50;67.90;;;;;;4858496;29;20884;-83
2023/08/21 07:19:03;;;;;;;6.00;5.60;;;30.50;67.90;;;;;;4843544;29;20967;-83
2023/08/21 07:21:35;;;;;;;5.90;5.40;;;30.40;68.00;;;;;;4850606;29;20455;-83
2023/08/21 07:24:03;;;;;;;5.50;5.20;;;30.40;68.00;;;;;;4846658;29;20467;-83
2023/08/21 07:26:32;;;;;;;5.83;5.43;;;30.40;67.90;;;;;;4843015;29;20478;-83
2023/08/21 07:29:00;;;;;;;5.67;5.27;;;30.40;67.90;;;;;;4854297;29;20520;-83
2023/08/21 07:31:28;;;;;;;5.30;4.90;;;30.40;68.00;;;;;;4853283;29;20522;-83
2023/08/21 07:33:56;;;;;;;6.07;5.67;;;30.40;67.90;;;;;;4862106;29;20442;-83
2023/08/21 07:36:25;;;;;;;5.67;5.30;;;30.40;67.90;;;;;;4862476;29;20464;-83
2023/08/21 07:38:54;;;;;;;5.97;5.57;;;30.40;67.90;;;;;;4861655;29;20439;-83
2023/08/21 07:41:22;;;;;;;5.63;5.33;;;30.40;67.90;;;;;;4861140;29;20479;-84
2023/08/21 07:43:54;;;;;;;6.00;5.60;;;30.40;67.90;;;;;;4862265;29;20796;-83
2023/08/21 07:46:22;;;;;;;5.57;5.27;;;30.40;67.90;;;;;;4862095;29;20450;-83
2023/08/21 07:48:51;;;;;;;5.80;5.40;;;30.40;67.90;;;;;;4861161;29;20487;-83
2023/08/21 07:51:19;;;;;;;5.80;5.43;;;30.40;67.90;;;;;;4851781;29;20527;-83
2023/08/21 07:53:47;;;;;;;5.43;5.13;;;30.40;67.90;;;;;;4842657;29;20582;-83
2023/08/21 07:56:16;;;;;;;6.10;5.70;;;30.40;67.90;;;;;;4858160;29;20538;-83
2023/08/21 07:58:45;;;;;;;6.17;5.77;;;30.40;67.90;;;;;;4861790;29;20443;-83
2023/08/21 08:01:13;;;;;;;6.37;5.87;;;30.40;67.90;;;;;;4861758;29;20479;-83
2023/08/21 08:03:41;;;;;;;5.53;5.23;;;30.40;67.90;;;;;;4861796;29;20472;-83
2023/08/21 08:06:09;;;;;;;5.43;5.03;;;30.40;67.90;;;;;;4862098;29;20947;-83
2023/08/21 08:08:38;;;;;;;4.87;4.57;;;30.40;67.90;;;;;;4861070;29;20511;-83
2023/08/21 08:11:06;;;;;;;6.13;5.73;;;30.40;67.90;;;;;;4862117;29;21024;-83
2023/08/21 08:13:36;;;;;;;6.03;5.63;;;30.40;67.90;;;;;;4861427;29;20464;-84
2023/08/21 08:16:04;;;;;;;5.80;5.40;;;30.40;68.00;;;;;;4861716;29;20516;-83
2023/08/21 08:18:32;;;;;;;5.40;5.10;;;30.40;68.00;;;;;;4857667;29;20479;-83
2023/08/21 08:21:01;;;;;;;5.63;5.30;;;30.40;68.00;;;;;;4854249;29;20871;-83
2023/08/21 08:23:29;;;;;;;5.43;5.13;;;30.40;68.00;;;;;;4859549;29;20821;-84
2023/08/21 08:25:57;;;;;;;6.17;5.77;;;30.40;68.00;;;;;;4850736;29;20468;-82
2023/08/21 08:28:25;;;;;;;5.60;5.20;;;30.40;68.00;;;;;;4842720;29;20520;-83
2023/08/21 08:30:55;;;;;;;5.60;5.30;;;30.40;68.00;;;;;;4846681;29;20475;-83
2023/08/21 08:33:23;;;;;;;5.60;5.30;;;30.40;68.10;;;;;;4861844;29;20443;-83
2023/08/21 08:35:51;;;;;;;5.60;5.30;;;30.30;68.10;;;;;;4861267;29;20440;-83
2023/08/21 08:38:20;;;;;;;5.13;4.83;;;30.30;68.10;;;;;;4860017;29;20578;-83
2023/08/21 08:40:50;;;;;;;5.27;4.97;;;30.30;68.10;;;;;;4859662;29;20492;-84
2023/08/21 08:43:20;;;;;;;5.43;5.10;;;30.40;68.10;;;;;;4860856;29;20540;-83
2023/08/21 08:45:50;;;;;;;5.07;4.77;;;30.40;68.10;;;;;;4861467;29;20532;-83
2023/08/21 08:48:21;;;;;;;6.00;5.60;;;30.40;68.10;;;;;;4855338;29;21031;-83
2023/08/21 08:50:51;;;;;;;5.87;5.47;;;30.40;68.10;;;;;;4860379;29;20468;-84
2023/08/21 08:53:20;;;;;;;4.83;4.53;;;30.40;68.10;;;;;;4846835;29;21015;-83
2023/08/21 08:55:50;;;;;;;5.60;5.20;;;30.30;68.10;;;;;;4842930;29;20441;-83
2023/08/21 08:58:18;;;;;;;5.47;5.07;;;30.30;68.10;;;;;;4842224;29;20514;-83
2023/08/21 09:00:46;;;;;;;5.37;5.00;;;30.30;68.10;;;;;;4844011;29;20476;-83
2023/08/21 09:03:15;;;;;;;5.30;5.00;;;30.40;68.10;;;;;;4861041;29;20452;-83
2023/08/21 09:05:45;;;;;;;5.27;4.97;;;30.40;68.10;;;;;;4861048;29;20463;-84
2023/08/21 09:08:14;;;;;;;4.83;4.53;;;30.40;68.20;;;;;;4859803;29;20436;-83
2023/08/21 09:10:45;;;;;;;4.40;4.10;;;30.40;68.10;;;;;;4861211;29;20483;-83
2023/08/21 09:13:15;;;;;;;5.40;5.00;;;30.40;68.10;;;;;;4859545;29;20474;-83
2023/08/21 09:15:44;;;;;;;4.90;4.60;;;30.40;68.10;;;;;;4860458;29;20851;-84
2023/08/21 09:18:12;;;;;;;5.47;5.17;;;30.40;68.20;;;;;;4851893;29;20991;-83
2023/08/21 09:20:40;;;;;;;5.50;5.10;;;30.40;68.20;;;;;;4843712;29;20922;-84
2023/08/21 09:23:14;;;;;;;5.03;4.73;;;30.40;68.20;;;;;;4852572;29;20475;-83
2023/08/21 09:25:47;;;;;;;5.23;4.93;;;30.40;68.20;;;;;;4842585;29;20429;-83
2023/08/21 09:28:16;;;;;;;5.20;4.90;;;30.40;68.20;;;;;;4841501;29;20905;-83
2023/08/21 09:30:48;;;;;;;4.70;4.40;;;30.40;68.20;;;;;;4843827;29;20480;-83
2023/08/21 09:33:21;;;;;;;5.10;4.80;;;30.40;68.20;;;;;;4860302;29;20861;-83
2023/08/21 09:35:50;;;;;;;4.70;4.40;;;30.40;68.20;;;;;;4860109;29;20967;-84
2023/08/21 09:38:19;;;;;;;5.97;5.57;;;30.40;68.20;;;;;;4859370;29;20436;-83
2023/08/21 09:40:52;;;;;;;5.13;4.83;;;30.40;68.20;;;;;;4860692;29;20441;-83
2023/08/21 09:43:21;;;;;;;4.43;4.17;;;30.40;68.20;;;;;;4859876;29;20491;-85
2023/08/21 09:45:52;;;;;;;5.10;4.80;;;30.40;68.20;;;;;;4854519;29;20468;-84
2023/08/21 09:48:22;;;;;;;5.43;5.13;;;30.40;68.20;;;;;;4859462;29;20444;-84
2023/08/21 09:50:52;;;;;;;5.13;4.83;;;30.40;68.20;;;;;;4858847;29;20517;-83
2023/08/21 09:53:23;;;;;;;5.33;5.03;;;30.40;68.20;;;;;;4857866;29;20514;-85
2023/08/21 09:55:54;;;;;;;5.40;5.00;;;30.40;68.20;;;;;;4846256;29;20468;-83
2023/08/21 09:58:23;;;;;;;5.50;5.20;;;30.40;68.20;;;;;;4844137;29;20467;-83
2023/08/21 10:00:57;;;;;;;5.17;4.77;;;30.40;68.20;;;;;;4852415;29;20517;-83
2023/08/21 10:03:27;;;;;;;5.00;4.70;;;30.40;68.20;;;;;;4857662;29;20503;-83
2023/08/21 10:05:58;;;;;;;5.40;5.10;;;30.40;68.20;;;;;;4854456;29;20552;-83
2023/08/21 10:08:29;;;;;;;5.10;4.80;;;30.40;68.20;;;;;;4859277;29;20444;-83
2023/08/21 10:10:57;;;;;;;5.50;5.00;;;30.40;68.20;;;;;;4859516;29;20464;-83
2023/08/21 10:13:27;;;;;;;5.63;5.23;;;30.40;68.20;;;;;;4859395;29;20444;-83
2023/08/21 10:15:55;;;;;;;5.57;5.17;;;30.40;68.20;;;;;;4847202;29;20555;-83
2023/08/21 10:18:30;;;;;;;5.23;4.93;;;30.40;68.20;;;;;;4841022;29;20946;-83
2023/08/21 10:21:11;;;;;;;5.03;4.73;;;30.40;68.20;;;;;;4856199;29;20467;-83
2023/08/21 10:23:42;;;;;;;5.50;5.20;;;30.40;68.20;;;;;;4859032;29;20921;-84
2023/08/21 10:26:14;;;;;;;5.30;5.00;;;30.40;68.20;;;;;;4860061;29;20428;-83
2023/08/21 10:28:49;;;;;;;4.87;4.57;;;30.40;68.30;;;;;;4859041;29;20484;-84
2023/08/21 10:31:31;;;;;;;5.17;4.87;;;30.40;68.20;;;;;;4859816;29;20507;-83
2023/08/21 10:34:01;;;;;;;4.90;4.60;;;30.40;68.20;;;;;;4859378;29;20439;-84
2023/08/21 10:37:07;;;;;;;4.80;4.50;;;30.40;68.30;;;;;;4859087;29;20460;-83
2023/08/21 10:39:39;;;;;;;5.00;4.70;;;30.40;68.30;;;;;;4858559;29;20456;-83
2023/08/21 10:42:09;;;;;;;4.50;4.20;;;30.40;68.30;;;;;;4859870;29;20460;-83
2023/08/21 10:44:51;;;;;;;4.47;4.17;;;30.40;68.30;;;;;;4847330;29;20468;-83
2023/08/21 10:47:22;;;;;;;4.93;4.63;;;30.40;68.30;;;;;;4840641;29;20520;-83
2023/08/21 10:49:53;;;;;;;5.00;4.70;;;30.40;68.30;;;;;;4855865;29;20849;-83
2023/08/21 10:52:24;;;;;;;4.80;4.50;;;30.40;68.40;;;;;;4858693;29;20514;-83
2023/08/21 10:54:54;;;;;;;5.57;5.17;;;30.30;68.40;;;;;;4858819;29;20935;-83
2023/08/21 10:57:23;;;;;;;5.30;5.00;;;30.30;68.40;;;;;;4859287;29;20443;-83
2023/08/21 10:59:53;;;;;;;5.20;4.90;;;30.30;68.50;;;;;;4858877;29;20466;-83
2023/08/21 11:02:22;;;;;;;5.23;4.87;;;30.30;68.50;;;;;;4862624;29;20432;-83
2023/08/21 11:04:51;;;;;;;5.17;4.87;;;30.30;68.50;;;;;;4863341;29;20459;-83
2023/08/21 11:07:20;;;;;;;4.90;4.60;;;30.30;68.50;;;;;;4855785;29;20464;-83
2023/08/21 11:09:49;;;;;;;5.33;5.03;;;30.30;68.60;;;;;;4843864;29;21023;-84
2023/08/21 11:12:20;;;;;;;5.47;5.10;;;30.30;68.60;;;;;;4856295;29;20525;-83
2023/08/21 11:14:49;;;;;;;5.23;4.93;;;30.30;68.70;;;;;;4861026;29;20448;-83
2023/08/21 11:17:18;;;;;;;4.90;4.60;;;30.30;68.70;;;;;;4862824;29;20472;-83
2023/08/21 11:19:48;;;;;;;5.30;4.93;;;30.30;68.70;;;;;;4862925;29;20548;-83
2023/08/21 11:22:17;;;;;;;6.10;5.70;;;30.30;68.70;;;;;;4862062;29;20447;-83
2023/08/21 11:24:47;;;;;;;4.80;4.50;;;30.30;68.70;;;;;;4862456;29;20457;-84
2023/08/21 11:27:17;;;;;;;5.00;4.70;;;30.30;68.70;;;;;;4862731;29;20807;-84
2023/08/21 11:29:48;;;;;;;4.53;4.23;;;30.40;68.50;;;;;;4862848;29;20523;-83
2023/08/21 11:32:18;;;;;;;5.10;4.80;;;30.50;68.30;;;;;;4862912;29;20444;-85
2023/08/21 11:34:50;;;;;;;4.50;4.20;;;30.60;68.10;;;;;;4862460;29;20442;-83
2023/08/21 11:37:19;;;;;;;5.00;4.70;;;30.70;67.90;;;;;;4848689;29;20461;-84
2023/08/21 11:39:49;;;;;;;4.90;4.60;;;30.90;67.50;;;;;;4844325;29;21022;-83
2023/08/21 11:42:17;;;;;;;5.20;4.90;;;31.00;67.10;;;;;;4850512;29;20469;-83
2023/08/21 11:44:49;;;;;;;4.80;4.50;;;31.20;66.70;;;;;;4843743;29;20453;-83
2023/08/21 11:47:18;;;;;;;4.50;4.30;;;31.40;66.30;;;;;;4847898;29;20464;-83
2023/08/21 11:49:49;;;;;;;5.17;4.87;;;31.60;65.90;;;;;;4862133;29;20429;-83
2023/08/21 11:52:21;;;;;;;5.23;4.93;;;31.70;65.60;;;;;;4861650;29;20515;-84
2023/08/21 11:54:50;;;;;;;5.10;4.80;;;31.80;65.40;;;;;;4862449;29;20439;-83
2023/08/21 11:57:19;;;;;;;4.80;4.50;;;31.80;65.30;;;;;;4861984;29;20456;-83
2023/08/21 11:59:52;;;;;;;4.10;3.90;;;31.90;65.10;;;;;;4861756;29;20519;-83
2023/08/21 12:02:24;;;;;;;4.40;4.20;;;32.00;65.00;;;;;;4862208;29;20446;-84
2023/08/21 12:04:54;;;;;;;4.03;3.83;;;32.00;64.90;;;;;;4862276;29;20461;-83
2023/08/21 12:07:22;;;;;;;4.63;4.33;;;32.00;64.70;;;;;;4861529;29;21076;-83
2023/08/21 12:09:50;;;;;;;4.90;4.60;;;32.10;64.70;;;;;;4856403;29;20469;-84
2023/08/21 12:12:19;;;;;;;4.50;4.20;;;32.10;64.70;;;;;;4854041;29;21059;-84
2023/08/21 12:14:47;;;;;;;4.37;4.10;;;32.10;64.60;;;;;;4862078;29;20862;-83
2023/08/21 12:17:17;;;;;;;4.80;4.53;;;32.10;64.60;;;;;;4861480;29;20432;-85
2023/08/21 12:19:45;;;;;;;4.10;3.90;;;32.20;64.50;;;;;;4861759;29;20432;-83
2023/08/21 12:22:13;;;;;;;4.30;4.10;;;32.20;64.40;;;;;;4861783;29;20486;-83
2023/08/21 12:24:41;;;;;;;4.80;4.40;;;32.20;64.30;;;;;;4861351;29;20484;-83
2023/08/21 12:27:09;;;;;;;4.40;4.10;;;32.30;64.30;;;;;;4861779;29;20455;-83
2023/08/21 12:29:38;;;;;;;4.43;4.13;;;32.30;64.20;;;;;;4861911;29;20924;-84
2023/08/21 12:32:06;;;;;;;4.10;3.90;;;32.30;64.20;;;;;;4861296;29;20480;-83
2023/08/21 12:34:36;;;;;;;4.40;4.10;;;32.30;64.20;;;;;;4855144;29;20472;-84
2023/08/21 12:37:04;;;;;;;4.33;4.03;;;32.30;64.20;;;;;;4846604;29;20488;-83
2023/08/21 12:39:32;;;;;;;4.40;4.20;;;32.20;64.10;;;;;;4847550;29;20464;-83
2023/08/21 12:42:01;;;;;;;4.33;4.10;;;32.10;64.40;;;;;;4861479;29;20526;-85
2023/08/21 12:44:29;;;;;;;4.10;3.90;;;32.00;64.80;;;;;;4848584;29;20488;-83
2023/08/21 12:46:57;;;;;;;4.57;4.27;;;31.80;65.10;;;;;;4843235;29;20457;-84
2023/08/21 12:49:26;;;;;;;3.70;3.50;;;31.80;65.30;;;;;;4843149;29;20453;-83
2023/08/21 12:51:55;;;;;;;4.60;4.30;;;31.80;65.30;;;;;;4850821;29;20536;-84
2023/08/21 12:54:23;;;;;;;4.77;4.47;;;31.80;65.30;;;;;;4859043;29;20560;-83
2023/08/21 12:56:53;;;;;;;4.27;4.07;;;31.80;65.30;;;;;;4861594;29;20479;-84
2023/08/21 12:59:22;;;;;;;4.27;4.07;;;31.90;65.20;;;;;;4860710;29;20565;-84